sensor_id;sensor_type;location;lat;lon;timestamp;temperature;humidity
38902;DHT22;24661;53.566;9.910;2023-08-24T00:01:32;18.50;99.90
38902;DHT22;24661;53.566;9.910;2023-08-24T00:03:57;18.40;99.90
38902;DHT22;24661;53.566;9.910;2023-08-24T00:06:23;18.40;99.90
38902;DHT22;24661;53.566;9.910;2023-08-24T00:08:48;18.40;99.90
38902;DHT22;24661;53.566;9.910;2023-08-24T00:11:14;18.30;99.90
38902;DHT22;24661;53.566;9.910;2023-08-24T00:13:43;18.30;99.90
38902;DHT22;24661;53.566;9.910;2023-08-24T00:16:15;19.80;99.90
38902;DHT22;24661;53.566;9.910;2023-08-24T00:18:40;18.30;99.90
38902;DHT22;24661;53.566;9.910;2023-08-24T00:21:06;18.30;99.90
38902;DHT22;24661;53.566;9.910;2023-08-24T00:23:33;18.30;99.90
38902;DHT22;24661;53.566;9.910;2023-08-24T00:25:59;18.20;99.90
38902;DHT22;24661;53.566;9.910;2023-08-24T00:28:25;18.20;99.90
38902;DHT22;24661;53.566;9.910;2023-08-24T00:30:51;18.10;99.90
38902;DHT22;24661;53.566;9.910;2023-08-24T00:33:16;18.10;99.90
38902;DHT22;24661;53.566;9.910;2023-08-24T00:35:42;18.10;99.90
38902;DHT22;24661;53.566;9.910;2023-08-24T00:38:08;18.10;99.90
38902;DHT22;24661;53.566;9.910;2023-08-24T00:40:33;18.30;99.90
38902;DHT22;24661;53.566;9.910;2023-08-24T00:43:00;18.20;99.90
38902;DHT22;24661;53.566;9.910;2023-08-24T00:45:26;18.10;99.90
38902;DHT22;24661;53.566;9.910;2023-08-24T00:47:51;18.00;99.90
38902;DHT22;24661;53.566;9.910;2023-08-24T00:50:18;18.00;99.90
38902;DHT22;24661;53.566;9.910;2023-08-24T00:52:44;17.90;99.90
38902;DHT22;24661;53.566;9.910;2023-08-24T00:55:11;18.50;99.90
38902;DHT22;24661;53.566;9.910;2023-08-24T00:57:37;17.80;99.90
38902;DHT22;24661;53.566;9.910;2023-08-24T01:00:05;17.80;99.90
38902;DHT22;24661;53.566;9.910;2023-08-24T01:02:32;17.70;99.90
38902;DHT22;24661;53.566;9.910;2023-08-24T01:04:58;17.70;99.90
38902;DHT22;24661;53.566;9.910;2023-08-24T01:07:24;17.70;99.90
38902;DHT22;24661;53.566;9.910;2023-08-24T01:09:51;17.70;99.90
38902;DHT22;24661;53.566;9.910;2023-08-24T01:15:09;19.20;99.90
38902;DHT22;24661;53.566;9.910;2023-08-24T01:17:39;17.60;99.90
38902;DHT22;24661;53.566;9.910;2023-08-24T01:20:06;17.50;99.90
38902;DHT22;24661;53.566;9.910;2023-08-24T01:22:57;17.50;99.90
38902;DHT22;24661;53.566;9.910;2023-08-24T01:25:46;17.50;99.90
38902;DHT22;24661;53.566;9.910;2023-08-24T01:28:14;17.50;99.90
38902;DHT22;24661;53.566;9.910;2023-08-24T01:30:43;17.50;99.90
38902;DHT22;24661;53.566;9.910;2023-08-24T01:33:09;17.50;99.90
38902;DHT22;24661;53.566;9.910;2023-08-24T01:35:37;17.50;99.90
38902;DHT22;24661;53.566;9.910;2023-08-24T01:38:04;17.40;99.90
38902;DHT22;24661;53.566;9.910;2023-08-24T01:41:18;17.40;99.90
38902;DHT22;24661;53.566;9.910;2023-08-24T01:43:36;17.30;99.90
38902;DHT22;24661;53.566;9.910;2023-08-24T01:46:04;17.30;99.90
38902;DHT22;24661;53.566;9.910;2023-08-24T01:48:30;17.30;99.90
38902;DHT22;24661;53.566;9.910;2023-08-24T01:50:58;17.20;99.90
38902;DHT22;24661;53.566;9.910;2023-08-24T01:53:26;17.20;99.90
38902;DHT22;24661;53.566;9.910;2023-08-24T01:55:51;17.20;99.90
38902;DHT22;24661;53.566;9.910;2023-08-24T01:58:19;17.20;99.90
38902;DHT22;24661;53.566;9.910;2023-08-24T02:00:44;17.10;99.90
38902;DHT22;24661;53.566;9.910;2023-08-24T02:03:10;17.10;99.90
38902;DHT22;24661;53.566;9.910;2023-08-24T02:05:36;17.10;99.90
38902;DHT22;24661;53.566;9.910;2023-08-24T02:08:01;17.10;99.90
38902;DHT22;24661;53.566;9.910;2023-08-24T02:10:27;17.00;99.90
38902;DHT22;24661;53.566;9.910;2023-08-24T02:12:52;17.20;99.90
38902;DHT22;24661;53.566;9.910;2023-08-24T02:15:18;17.00;99.90
38902;DHT22;24661;53.566;9.910;2023-08-24T02:17:44;18.10;99.90
38902;DHT22;24661;53.566;9.910;2023-08-24T02:20:10;16.90;99.90
38902;DHT22;24661;53.566;9.910;2023-08-24T02:22:37;16.80;99.90
38902;DHT22;24661;53.566;9.910;2023-08-24T02:25:03;16.80;99.90
38902;DHT22;24661;53.566;9.910;2023-08-24T02:27:30;16.70;99.90
38902;DHT22;24661;53.566;9.910;2023-08-24T02:29:56;16.70;99.90
38902;DHT22;24661;53.566;9.910;2023-08-24T02:32:21;16.70;99.90
38902;DHT22;24661;53.566;9.910;2023-08-24T02:34:47;16.70;99.90
38902;DHT22;24661;53.566;9.910;2023-08-24T02:37:13;16.70;99.90
38902;DHT22;24661;53.566;9.910;2023-08-24T02:39:38;16.70;99.90
38902;DHT22;24661;53.566;9.910;2023-08-24T02:42:04;16.70;99.90
38902;DHT22;24661;53.566;9.910;2023-08-24T02:44:30;16.70;99.90
38902;DHT22;24661;53.566;9.910;2023-08-24T02:46:56;16.70;99.90
38902;DHT22;24661;53.566;9.910;2023-08-24T02:49:22;16.70;99.90
38902;DHT22;24661;53.566;9.910;2023-08-24T02:51:48;15.40;99.90
38902;DHT22;24661;53.566;9.910;2023-08-24T02:54:13;16.60;99.90
38902;DHT22;24661;53.566;9.910;2023-08-24T02:56:39;16.50;99.90
38902;DHT22;24661;53.566;9.910;2023-08-24T02:59:04;16.50;99.90
38902;DHT22;24661;53.566;9.910;2023-08-24T03:01:30;16.50;99.90
38902;DHT22;24661;53.566;9.910;2023-08-24T03:03:56;16.50;99.90
38902;DHT22;24661;53.566;9.910;2023-08-24T03:06:21;16.50;99.90
38902;DHT22;24661;53.566;9.910;2023-08-24T03:08:49;16.50;99.90
38902;DHT22;24661;53.566;9.910;2023-08-24T03:11:15;16.50;99.90
38902;DHT22;24661;53.566;9.910;2023-08-24T03:13:40;16.50;99.90
38902;DHT22;24661;53.566;9.910;2023-08-24T03:16:06;16.40;99.90
38902;DHT22;24661;53.566;9.910;2023-08-24T03:18:32;16.40;99.90
38902;DHT22;24661;53.566;9.910;2023-08-24T03:20:58;15.30;99.90
38902;DHT22;24661;53.566;9.910;2023-08-24T03:23:24;16.40;99.90
38902;DHT22;24661;53.566;9.910;2023-08-24T03:25:50;16.40;99.90
38902;DHT22;24661;53.566;9.910;2023-08-24T03:28:16;16.30;99.90
38902;DHT22;24661;53.566;9.910;2023-08-24T03:30:49;16.30;99.90
38902;DHT22;24661;53.566;9.910;2023-08-24T03:33:15;16.30;99.90
38902;DHT22;24661;53.566;9.910;2023-08-24T03:35:41;16.30;99.90
38902;DHT22;24661;53.566;9.910;2023-08-24T03:38:07;16.30;99.90
38902;DHT22;24661;53.566;9.910;2023-08-24T03:40:33;16.20;99.90
38902;DHT22;24661;53.566;9.910;2023-08-24T03:42:58;16.40;99.90
38902;DHT22;24661;53.566;9.910;2023-08-24T03:45:24;16.30;99.90
38902;DHT22;24661;53.566;9.910;2023-08-24T03:47:50;16.20;99.90
38902;DHT22;24661;53.566;9.910;2023-08-24T03:50:16;16.10;99.90
38902;DHT22;24661;53.566;9.910;2023-08-24T03:52:42;16.10;99.90
38902;DHT22;24661;53.566;9.910;2023-08-24T03:55:08;16.20;99.90
38902;DHT22;24661;53.566;9.910;2023-08-24T03:57:34;16.20;99.90
38902;DHT22;24661;53.566;9.910;2023-08-24T03:59:59;16.20;99.90
38902;DHT22;24661;53.566;9.910;2023-08-24T04:02:25;16.10;99.90
38902;DHT22;24661;53.566;9.910;2023-08-24T04:04:52;16.10;99.90
38902;DHT22;24661;53.566;9.910;2023-08-24T04:07:18;16.10;99.90
38902;DHT22;24661;53.566;9.910;2023-08-24T04:09:43;16.10;99.90
38902;DHT22;24661;53.566;9.910;2023-08-24T04:12:10;16.10;99.90
38902;DHT22;24661;53.566;9.910;2023-08-24T04:14:36;16.10;99.90
38902;DHT22;24661;53.566;9.910;2023-08-24T04:17:02;15.20;99.90
38902;DHT22;24661;53.566;9.910;2023-08-24T04:19:27;16.10;99.90
38902;DHT22;24661;53.566;9.910;2023-08-24T04:21:53;16.10;99.90
38902;DHT22;24661;53.566;9.910;2023-08-24T04:24:18;16.20;99.90
38902;DHT22;24661;53.566;9.910;2023-08-24T04:26:44;16.10;99.90
38902;DHT22;24661;53.566;9.910;2023-08-24T04:29:10;16.10;99.90
38902;DHT22;24661;53.566;9.910;2023-08-24T04:31:35;16.10;99.90
38902;DHT22;24661;53.566;9.910;2023-08-24T04:34:02;16.20;99.90
38902;DHT22;24661;53.566;9.910;2023-08-24T04:36:29;16.00;99.90
38902;DHT22;24661;53.566;9.910;2023-08-24T04:38:54;16.00;99.90
38902;DHT22;24661;53.566;9.910;2023-08-24T04:41:20;16.00;99.90
38902;DHT22;24661;53.566;9.910;2023-08-24T04:43:46;15.90;99.90
38902;DHT22;24661;53.566;9.910;2023-08-24T04:46:11;15.90;99.90
38902;DHT22;24661;53.566;9.910;2023-08-24T04:48:37;15.90;99.90
38902;DHT22;24661;53.566;9.910;2023-08-24T04:51:03;15.90;99.90
38902;DHT22;24661;53.566;9.910;2023-08-24T04:53:29;15.90;99.90
38902;DHT22;24661;53.566;9.910;2023-08-24T04:55:54;16.00;99.90
38902;DHT22;24661;53.566;9.910;2023-08-24T04:58:21;16.00;99.90
38902;DHT22;24661;53.566;9.910;2023-08-24T05:00:48;16.00;99.90
38902;DHT22;24661;53.566;9.910;2023-08-24T05:03:14;16.00;99.90
38902;DHT22;24661;53.566;9.910;2023-08-24T05:05:40;16.10;99.90
38902;DHT22;24661;53.566;9.910;2023-08-24T05:08:05;16.00;99.90
38902;DHT22;24661;53.566;9.910;2023-08-24T05:10:32;16.00;99.90
38902;DHT22;24661;53.566;9.910;2023-08-24T05:12:58;16.00;99.90
38902;DHT22;24661;53.566;9.910;2023-08-24T05:15:24;16.10;99.90
38902;DHT22;24661;53.566;9.910;2023-08-24T05:17:49;16.10;99.90
38902;DHT22;24661;53.566;9.910;2023-08-24T05:20:17;16.10;99.90
38902;DHT22;24661;53.566;9.910;2023-08-24T05:22:44;16.10;99.90
38902;DHT22;24661;53.566;9.910;2023-08-24T05:25:09;16.10;99.90
38902;DHT22;24661;53.566;9.910;2023-08-24T05:27:35;16.20;99.90
38902;DHT22;24661;53.566;9.910;2023-08-24T05:30:00;16.20;99.90
38902;DHT22;24661;53.566;9.910;2023-08-24T05:32:26;16.20;99.90
38902;DHT22;24661;53.566;9.910;2023-08-24T05:34:51;16.30;99.90
38902;DHT22;24661;53.566;9.910;2023-08-24T05:37:17;16.30;99.90
38902;DHT22;24661;53.566;9.910;2023-08-24T05:39:42;18.60;99.90
38902;DHT22;24661;53.566;9.910;2023-08-24T05:42:09;16.40;99.90
38902;DHT22;24661;53.566;9.910;2023-08-24T05:44:35;16.50;99.90
38902;DHT22;24661;53.566;9.910;2023-08-24T05:47:00;16.50;99.90
38902;DHT22;24661;53.566;9.910;2023-08-24T05:49:26;16.60;99.90
38902;DHT22;24661;53.566;9.910;2023-08-24T05:51:52;17.20;99.90
38902;DHT22;24661;53.566;9.910;2023-08-24T05:54:18;16.70;99.90
38902;DHT22;24661;53.566;9.910;2023-08-24T05:56:45;16.70;99.90
38902;DHT22;24661;53.566;9.910;2023-08-24T05:59:10;16.90;99.90
38902;DHT22;24661;53.566;9.910;2023-08-24T06:01:36;16.80;99.90
38902;DHT22;24661;53.566;9.910;2023-08-24T06:04:10;16.90;99.90
38902;DHT22;24661;53.566;9.910;2023-08-24T06:06:36;16.90;99.90
38902;DHT22;24661;53.566;9.910;2023-08-24T06:09:03;17.00;99.90
38902;DHT22;24661;53.566;9.910;2023-08-24T06:11:33;17.10;99.90
38902;DHT22;24661;53.566;9.910;2023-08-24T06:13:58;15.50;99.90
38902;DHT22;24661;53.566;9.910;2023-08-24T06:16:24;17.20;99.90
38902;DHT22;24661;53.566;9.910;2023-08-24T06:18:50;17.20;99.90
38902;DHT22;24661;53.566;9.910;2023-08-24T06:21:16;17.20;99.90
38902;DHT22;24661;53.566;9.910;2023-08-24T06:23:41;17.40;99.90
38902;DHT22;24661;53.566;9.910;2023-08-24T06:26:07;17.50;99.90
38902;DHT22;24661;53.566;9.910;2023-08-24T06:28:33;19.60;99.90
38902;DHT22;24661;53.566;9.910;2023-08-24T06:31:00;19.10;99.90
38902;DHT22;24661;53.566;9.910;2023-08-24T06:33:29;17.70;99.90
38902;DHT22;24661;53.566;9.910;2023-08-24T06:35:56;17.80;99.90
38902;DHT22;24661;53.566;9.910;2023-08-24T06:38:22;17.80;99.90
38902;DHT22;24661;53.566;9.910;2023-08-24T06:40:48;17.80;99.90
38902;DHT22;24661;53.566;9.910;2023-08-24T06:43:13;17.80;99.90
38902;DHT22;24661;53.566;9.910;2023-08-24T06:45:40;17.90;99.90
38902;DHT22;24661;53.566;9.910;2023-08-24T06:48:06;18.00;99.90
38902;DHT22;24661;53.566;9.910;2023-08-24T06:50:33;18.10;99.90
38902;DHT22;24661;53.566;9.910;2023-08-24T06:52:58;18.20;99.90
38902;DHT22;24661;53.566;9.910;2023-08-24T06:55:25;18.20;99.90
38902;DHT22;24661;53.566;9.910;2023-08-24T06:57:50;18.20;99.90
38902;DHT22;24661;53.566;9.910;2023-08-24T07:00:17;18.40;99.90
38902;DHT22;24661;53.566;9.910;2023-08-24T07:02:47;18.30;99.90
38902;DHT22;24661;53.566;9.910;2023-08-24T07:05:13;18.40;99.90
38902;DHT22;24661;53.566;9.910;2023-08-24T07:07:39;19.60;99.90
38902;DHT22;24661;53.566;9.910;2023-08-24T07:10:06;18.90;99.90
38902;DHT22;24661;53.566;9.910;2023-08-24T07:12:32;18.60;99.90
38902;DHT22;24661;53.566;9.910;2023-08-24T07:14:57;18.80;99.90
38902;DHT22;24661;53.566;9.910;2023-08-24T07:17:23;18.80;99.90
38902;DHT22;24661;53.566;9.910;2023-08-24T07:19:49;18.80;99.90
38902;DHT22;24661;53.566;9.910;2023-08-24T07:22:15;18.90;99.90
38902;DHT22;24661;53.566;9.910;2023-08-24T07:24:41;18.90;99.90
38902;DHT22;24661;53.566;9.910;2023-08-24T07:27:07;19.00;99.90
38902;DHT22;24661;53.566;9.910;2023-08-24T07:29:34;19.00;99.90
38902;DHT22;24661;53.566;9.910;2023-08-24T07:32:00;19.10;99.90
38902;DHT22;24661;53.566;9.910;2023-08-24T07:34:25;19.20;99.90
38902;DHT22;24661;53.566;9.910;2023-08-24T07:36:51;19.50;99.90
38902;DHT22;24661;53.566;9.910;2023-08-24T07:39:17;19.30;99.90
38902;DHT22;24661;53.566;9.910;2023-08-24T07:41:42;19.40;99.90
38902;DHT22;24661;53.566;9.910;2023-08-24T07:44:08;19.40;99.90
38902;DHT22;24661;53.566;9.910;2023-08-24T07:46:34;20.10;99.90
38902;DHT22;24661;53.566;9.910;2023-08-24T07:48:59;19.50;99.90
38902;DHT22;24661;53.566;9.910;2023-08-24T07:51:25;19.50;99.90
38902;DHT22;24661;53.566;9.910;2023-08-24T07:53:52;19.50;99.90
38902;DHT22;24661;53.566;9.910;2023-08-24T07:56:18;19.60;99.90
38902;DHT22;24661;53.566;9.910;2023-08-24T07:58:44;19.60;99.90
38902;DHT22;24661;53.566;9.910;2023-08-24T08:01:11;19.60;99.90
38902;DHT22;24661;53.566;9.910;2023-08-24T08:03:37;19.80;99.90
38902;DHT22;24661;53.566;9.910;2023-08-24T08:06:02;19.90;99.90
38902;DHT22;24661;53.566;9.910;2023-08-24T08:08:28;19.90;99.90
38902;DHT22;24661;53.566;9.910;2023-08-24T08:11:02;20.00;99.90
38902;DHT22;24661;53.566;9.910;2023-08-24T08:13:31;20.10;99.90
38902;DHT22;24661;53.566;9.910;2023-08-24T08:16:06;20.30;99.90
38902;DHT22;24661;53.566;9.910;2023-08-24T08:18:33;20.30;99.90
38902;DHT22;24661;53.566;9.910;2023-08-24T08:20:59;20.40;99.90
38902;DHT22;24661;53.566;9.910;2023-08-24T08:23:25;20.40;99.90
38902;DHT22;24661;53.566;9.910;2023-08-24T08:25:50;20.50;99.90
38902;DHT22;24661;53.566;9.910;2023-08-24T08:28:17;20.60;99.90
38902;DHT22;24661;53.566;9.910;2023-08-24T08:30:44;20.70;99.90
38902;DHT22;24661;53.566;9.910;2023-08-24T08:33:09;20.70;99.90
38902;DHT22;24661;53.566;9.910;2023-08-24T08:35:35;20.80;99.90
38902;DHT22;24661;53.566;9.910;2023-08-24T08:38:01;21.10;99.90
38902;DHT22;24661;53.566;9.910;2023-08-24T08:40:29;21.00;99.90
38902;DHT22;24661;53.566;9.910;2023-08-24T08:42:58;21.00;99.90
38902;DHT22;24661;53.566;9.910;2023-08-24T08:45:25;21.10;99.90
38902;DHT22;24661;53.566;9.910;2023-08-24T08:47:59;21.80;99.90
38902;DHT22;24661;53.566;9.910;2023-08-24T08:50:26;21.30;99.90
38902;DHT22;24661;53.566;9.910;2023-08-24T08:52:52;21.30;99.90
38902;DHT22;24661;53.566;9.910;2023-08-24T08:55:19;21.30;99.90
38902;DHT22;24661;53.566;9.910;2023-08-24T08:57:49;21.40;99.90
38902;DHT22;24661;53.566;9.910;2023-08-24T09:00:16;21.50;99.90
38902;DHT22;24661;53.566;9.910;2023-08-24T09:02:43;21.60;99.90
38902;DHT22;24661;53.566;9.910;2023-08-24T09:05:11;21.70;99.90
38902;DHT22;24661;53.566;9.910;2023-08-24T09:07:39;21.50;99.90
38902;DHT22;24661;53.566;9.910;2023-08-24T09:10:05;22.10;99.90
38902;DHT22;24661;53.566;9.910;2023-08-24T09:12:33;22.00;99.90
38902;DHT22;24661;53.566;9.910;2023-08-24T09:14:58;22.10;99.90
38902;DHT22;24661;53.566;9.910;2023-08-24T09:17:24;21.80;99.90
38902;DHT22;24661;53.566;9.910;2023-08-24T09:19:58;21.80;99.90
38902;DHT22;24661;53.566;9.910;2023-08-24T09:22:24;21.80;99.90
38902;DHT22;24661;53.566;9.910;2023-08-24T09:24:50;21.90;99.90
38902;DHT22;24661;53.566;9.910;2023-08-24T09:27:20;22.10;99.90
38902;DHT22;24661;53.566;9.910;2023-08-24T09:29:52;22.30;99.90
38902;DHT22;24661;53.566;9.910;2023-08-24T09:32:31;22.40;99.90
38902;DHT22;24661;53.566;9.910;2023-08-24T09:35:02;22.50;99.90
38902;DHT22;24661;53.566;9.910;2023-08-24T09:37:32;22.60;99.90
38902;DHT22;24661;53.566;9.910;2023-08-24T09:40:05;22.50;99.90
38902;DHT22;24661;53.566;9.910;2023-08-24T09:42:38;22.50;99.90
38902;DHT22;24661;53.566;9.910;2023-08-24T09:45:08;22.60;99.90
38902;DHT22;24661;53.566;9.910;2023-08-24T09:47:36;23.00;99.90
38902;DHT22;24661;53.566;9.910;2023-08-24T09:50:03;22.60;99.90
38902;DHT22;24661;53.566;9.910;2023-08-24T09:52:33;22.60;99.90
38902;DHT22;24661;53.566;9.910;2023-08-24T09:55:04;22.80;99.90
38902;DHT22;24661;53.566;9.910;2023-08-24T09:57:39;22.80;99.90
38902;DHT22;24661;53.566;9.910;2023-08-24T10:00:09;23.00;99.90
38902;DHT22;24661;53.566;9.910;2023-08-24T10:02:49;23.00;99.90
38902;DHT22;24661;53.566;9.910;2023-08-24T10:05:20;22.90;99.90
38902;DHT22;24661;53.566;9.910;2023-08-24T10:07:56;23.00;99.90
38902;DHT22;24661;53.566;9.910;2023-08-24T10:10:25;23.20;99.90
38902;DHT22;24661;53.566;9.910;2023-08-24T10:12:56;23.20;99.90
38902;DHT22;24661;53.566;9.910;2023-08-24T10:15:23;23.30;99.90
38902;DHT22;24661;53.566;9.910;2023-08-24T10:17:50;23.40;99.90
38902;DHT22;24661;53.566;9.910;2023-08-24T10:20:18;23.60;99.90
38902;DHT22;24661;53.566;9.910;2023-08-24T10:22:46;23.00;99.90
38902;DHT22;24661;53.566;9.910;2023-08-24T10:25:13;23.30;99.90
38902;DHT22;24661;53.566;9.910;2023-08-24T10:27:39;23.20;99.90
38902;DHT22;24661;53.566;9.910;2023-08-24T10:30:11;23.30;99.90
38902;DHT22;24661;53.566;9.910;2023-08-24T10:32:38;23.50;99.90
38902;DHT22;24661;53.566;9.910;2023-08-24T10:35:05;23.60;99.90
38902;DHT22;24661;53.566;9.910;2023-08-24T10:37:31;23.50;99.90
38902;DHT22;24661;53.566;9.910;2023-08-24T10:39:59;23.40;99.90
38902;DHT22;24661;53.566;9.910;2023-08-24T10:42:26;23.30;99.90
38902;DHT22;24661;53.566;9.910;2023-08-24T10:44:52;23.40;99.90
38902;DHT22;24661;53.566;9.910;2023-08-24T10:50:05;23.70;99.90
38902;DHT22;24661;53.566;9.910;2023-08-24T10:52:32;23.70;99.90
38902;DHT22;24661;53.566;9.910;2023-08-24T10:55:01;23.60;99.90
38902;DHT22;24661;53.566;9.910;2023-08-24T10:57:57;23.70;99.90
38902;DHT22;24661;53.566;9.910;2023-08-24T11:00:26;23.80;99.90
38902;DHT22;24661;53.566;9.910;2023-08-24T11:02:53;24.10;99.90
38902;DHT22;24661;53.566;9.910;2023-08-24T11:07:50;24.20;99.90
38902;DHT22;24661;53.566;9.910;2023-08-24T11:10:17;24.40;99.90
38902;DHT22;24661;53.566;9.910;2023-08-24T11:13:12;24.40;99.90
38902;DHT22;24661;53.566;9.910;2023-08-24T11:15:50;24.40;99.90
38902;DHT22;24661;53.566;9.910;2023-08-24T11:18:25;24.40;99.90
38902;DHT22;24661;53.566;9.910;2023-08-24T11:21:05;24.00;99.90
38902;DHT22;24661;53.566;9.910;2023-08-24T11:23:32;23.90;99.90
38902;DHT22;24661;53.566;9.910;2023-08-24T11:26:00;23.90;99.90
38902;DHT22;24661;53.566;9.910;2023-08-24T11:28:30;22.90;99.90
38902;DHT22;24661;53.566;9.910;2023-08-24T11:30:56;24.00;99.90
38902;DHT22;24661;53.566;9.910;2023-08-24T11:33:29;24.00;99.90
38902;DHT22;24661;53.566;9.910;2023-08-24T11:35:55;24.00;99.90
38902;DHT22;24661;53.566;9.910;2023-08-24T11:38:20;23.60;99.90
38902;DHT22;24661;53.566;9.910;2023-08-24T11:40:46;24.20;99.90
38902;DHT22;24661;53.566;9.910;2023-08-24T11:43:12;24.20;99.90
38902;DHT22;24661;53.566;9.910;2023-08-24T11:45:38;24.30;99.90
38902;DHT22;24661;53.566;9.910;2023-08-24T11:48:06;24.40;99.90
38902;DHT22;24661;53.566;9.910;2023-08-24T11:50:32;24.40;99.90
38902;DHT22;24661;53.566;9.910;2023-08-24T11:53:00;24.40;99.90
38902;DHT22;24661;53.566;9.910;2023-08-24T11:55:26;24.40;99.90
38902;DHT22;24661;53.566;9.910;2023-08-24T11:57:53;24.40;99.90
38902;DHT22;24661;53.566;9.910;2023-08-24T12:00:20;24.40;99.90
38902;DHT22;24661;53.566;9.910;2023-08-24T12:02:47;24.60;99.90
38902;DHT22;24661;53.566;9.910;2023-08-24T12:05:23;24.70;99.90
38902;DHT22;24661;53.566;9.910;2023-08-24T12:07:50;24.70;99.90
38902;DHT22;24661;53.566;9.910;2023-08-24T12:10:17;24.80;99.90
38902;DHT22;24661;53.566;9.910;2023-08-24T12:12:42;24.90;99.90
38902;DHT22;24661;53.566;9.910;2023-08-24T12:15:15;25.10;99.90
38902;DHT22;24661;53.566;9.910;2023-08-24T12:17:44;25.20;99.90
38902;DHT22;24661;53.566;9.910;2023-08-24T12:20:21;25.20;99.90
38902;DHT22;24661;53.566;9.910;2023-08-24T12:22:54;25.20;99.90
38902;DHT22;24661;53.566;9.910;2023-08-24T12:25:23;25.30;99.90
38902;DHT22;24661;53.566;9.910;2023-08-24T12:27:51;25.30;99.90
38902;DHT22;24661;53.566;9.910;2023-08-24T12:30:17;25.60;99.90
38902;DHT22;24661;53.566;9.910;2023-08-24T12:32:44;25.70;99.90
38902;DHT22;24661;53.566;9.910;2023-08-24T12:35:10;24.70;99.90
38902;DHT22;24661;53.566;9.910;2023-08-24T12:37:36;25.70;99.90
38902;DHT22;24661;53.566;9.910;2023-08-24T12:40:03;25.50;99.90
38902;DHT22;24661;53.566;9.910;2023-08-24T12:42:31;25.50;99.90
38902;DHT22;24661;53.566;9.910;2023-08-24T12:44:57;25.50;99.90
38902;DHT22;24661;53.566;9.910;2023-08-24T12:47:22;25.50;99.90
38902;DHT22;24661;53.566;9.910;2023-08-24T12:49:48;25.50;99.90
38902;DHT22;24661;53.566;9.910;2023-08-24T12:52:16;25.50;99.90
38902;DHT22;24661;53.566;9.910;2023-08-24T12:54:42;25.60;99.90
38902;DHT22;24661;53.566;9.910;2023-08-24T12:57:08;24.40;99.90
38902;DHT22;24661;53.566;9.910;2023-08-24T12:59:33;25.90;99.90
38902;DHT22;24661;53.566;9.910;2023-08-24T13:01:59;25.90;99.90
38902;DHT22;24661;53.566;9.910;2023-08-24T13:04:25;26.00;99.90
38902;DHT22;24661;53.566;9.910;2023-08-24T13:06:52;26.10;99.90
38902;DHT22;24661;53.566;9.910;2023-08-24T13:09:17;26.30;99.90
38902;DHT22;24661;53.566;9.910;2023-08-24T13:11:43;26.30;99.90
38902;DHT22;24661;53.566;9.910;2023-08-24T13:14:09;26.20;99.90
38902;DHT22;24661;53.566;9.910;2023-08-24T13:16:35;26.30;99.90
38902;DHT22;24661;53.566;9.910;2023-08-24T13:19:00;26.20;99.90
38902;DHT22;24661;53.566;9.910;2023-08-24T13:21:26;25.80;99.90
38902;DHT22;24661;53.566;9.910;2023-08-24T13:23:52;25.60;99.90
38902;DHT22;24661;53.566;9.910;2023-08-24T13:26:21;25.70;99.90
38902;DHT22;24661;53.566;9.910;2023-08-24T13:28:48;25.80;99.90
38902;DHT22;24661;53.566;9.910;2023-08-24T13:31:14;25.90;99.90
38902;DHT22;24661;53.566;9.910;2023-08-24T13:33:40;25.80;99.90
38902;DHT22;24661;53.566;9.910;2023-08-24T13:36:05;25.60;99.90
38902;DHT22;24661;53.566;9.910;2023-08-24T13:38:31;25.70;99.90
38902;DHT22;24661;53.566;9.910;2023-08-24T13:40:57;25.70;99.90
38902;DHT22;24661;53.566;9.910;2023-08-24T13:43:22;25.60;99.90
38902;DHT22;24661;53.566;9.910;2023-08-24T13:45:48;25.50;99.90
38902;DHT22;24661;53.566;9.910;2023-08-24T13:48:14;25.50;99.90
38902;DHT22;24661;53.566;9.910;2023-08-24T13:50:41;25.20;99.90
38902;DHT22;24661;53.566;9.910;2023-08-24T13:53:07;25.60;99.90
38902;DHT22;24661;53.566;9.910;2023-08-24T13:55:33;25.60;99.90
38902;DHT22;24661;53.566;9.910;2023-08-24T13:57:59;25.60;99.90
38902;DHT22;24661;53.566;9.910;2023-08-24T14:00:25;25.60;99.90
38902;DHT22;24661;53.566;9.910;2023-08-24T14:02:51;25.50;99.90
38902;DHT22;24661;53.566;9.910;2023-08-24T14:05:16;25.20;99.90
38902;DHT22;24661;53.566;9.910;2023-08-24T14:07:42;25.10;99.90
38902;DHT22;24661;53.566;9.910;2023-08-24T14:10:08;25.10;99.90
38902;DHT22;24661;53.566;9.910;2023-08-24T14:12:34;25.00;99.90
38902;DHT22;24661;53.566;9.910;2023-08-24T14:15:00;25.00;99.90
38902;DHT22;24661;53.566;9.910;2023-08-24T14:17:26;25.20;99.90
38902;DHT22;24661;53.566;9.910;2023-08-24T14:19:51;25.10;99.90
38902;DHT22;24661;53.566;9.910;2023-08-24T14:22:17;25.20;99.90
38902;DHT22;24661;53.566;9.910;2023-08-24T14:24:42;25.20;99.90
38902;DHT22;24661;53.566;9.910;2023-08-24T14:27:08;25.30;99.90
38902;DHT22;24661;53.566;9.910;2023-08-24T14:29:33;25.40;99.90
38902;DHT22;24661;53.566;9.910;2023-08-24T14:31:59;25.30;99.90
38902;DHT22;24661;53.566;9.910;2023-08-24T14:34:24;25.50;99.90
38902;DHT22;24661;53.566;9.910;2023-08-24T14:36:50;25.40;99.90
38902;DHT22;24661;53.566;9.910;2023-08-24T14:39:16;25.30;99.90
38902;DHT22;24661;53.566;9.910;2023-08-24T14:41:41;25.30;99.90
38902;DHT22;24661;53.566;9.910;2023-08-24T14:44:07;25.30;99.90
38902;DHT22;24661;53.566;9.910;2023-08-24T14:46:33;25.40;99.90
38902;DHT22;24661;53.566;9.910;2023-08-24T14:48:59;25.50;99.90
38902;DHT22;24661;53.566;9.910;2023-08-24T14:51:25;25.60;99.90
38902;DHT22;24661;53.566;9.910;2023-08-24T14:53:51;25.50;99.90
38902;DHT22;24661;53.566;9.910;2023-08-24T14:56:16;25.60;99.90
38902;DHT22;24661;53.566;9.910;2023-08-24T14:58:42;25.60;99.90
38902;DHT22;24661;53.566;9.910;2023-08-24T15:01:08;25.50;99.90
38902;DHT22;24661;53.566;9.910;2023-08-24T15:06:02;25.60;99.90
38902;DHT22;24661;53.566;9.910;2023-08-24T15:08:30;25.60;99.90
38902;DHT22;24661;53.566;9.910;2023-08-24T15:10:57;25.60;99.90
38902;DHT22;24661;53.566;9.910;2023-08-24T15:13:24;25.50;99.90
38902;DHT22;24661;53.566;9.910;2023-08-24T15:15:52;25.40;99.90
38902;DHT22;24661;53.566;9.910;2023-08-24T15:18:17;25.30;99.90
38902;DHT22;24661;53.566;9.910;2023-08-24T15:20:43;25.50;99.90
38902;DHT22;24661;53.566;9.910;2023-08-24T15:23:09;25.50;99.90
38902;DHT22;24661;53.566;9.910;2023-08-24T15:25:36;25.60;99.90
38902;DHT22;24661;53.566;9.910;2023-08-24T15:28:01;25.70;99.90
38902;DHT22;24661;53.566;9.910;2023-08-24T15:30:27;25.70;99.90
38902;DHT22;24661;53.566;9.910;2023-08-24T15:32:53;25.60;99.90
38902;DHT22;24661;53.566;9.910;2023-08-24T15:35:18;25.50;99.90
38902;DHT22;24661;53.566;9.910;2023-08-24T15:37:44;25.50;99.90
38902;DHT22;24661;53.566;9.910;2023-08-24T15:40:10;25.40;99.90